Time;durP1;ratioP1;P1;durP2;ratioP2;P2;SDS_P1;SDS_P2;PMS_P1;PMS_P2;Temp;Humidity;BMP_temperature;BMP_pressure;BME280_temperature;BME280_humidity;BME280_pressure;Samples;Min_cycle;Max_cycle;Signal;HPM_P1;HPM_P2
2022/08/01 00:01:22;;;;;;;2.38;1.40;;;;;;;18.88;48.00;93859.13;5125899;28;20043;-79
2022/08/01 00:03:48;;;;;;;4.88;1.40;;;;;;;18.90;47.83;93859.56;5125972;28;20081;-79
2022/08/01 00:06:13;;;;;;;2.60;1.33;;;;;;;18.88;47.25;93861.06;5126037;28;20220;-79
2022/08/01 00:08:39;;;;;;;3.60;1.42;;;;;;;18.83;47.42;93860.25;5125896;28;20026;-79
2022/08/01 00:11:04;;;;;;;5.53;1.40;;;;;;;18.76;47.11;93859.31;5125875;27;20023;-79
2022/08/01 00:13:30;;;;;;;2.63;1.42;;;;;;;18.72;47.49;93858.50;5126019;28;20019;-79
2022/08/01 00:15:55;;;;;;;4.25;1.25;;;;;;;18.69;47.39;93856.53;5124629;28;20097;-79
2022/08/01 00:18:21;;;;;;;5.00;2.10;;;;;;;18.69;47.25;93853.84;5125499;28;20150;-79
2022/08/01 00:20:46;;;;;;;4.70;1.50;;;;;;;18.60;46.89;93854.88;5124259;28;20027;-78
2022/08/01 00:23:12;;;;;;;6.40;1.50;;;;;;;18.63;46.79;93859.53;5125450;28;20020;-79
2022/08/01 00:25:38;;;;;;;3.63;1.40;;;;;;;18.63;46.27;93859.53;5125605;28;20023;-79
2022/08/01 00:28:03;;;;;;;5.35;1.55;;;;;;;18.66;46.16;93858.03;5125603;28;20028;-79
2022/08/01 00:30:29;;;;;;;4.00;1.58;;;;;;;18.71;45.72;93846.16;5125263;28;20062;-79
2022/08/01 00:32:54;;;;;;;5.75;1.40;;;;;;;18.70;45.48;93858.09;5125172;28;20230;-79
2022/08/01 00:35:19;;;;;;;3.65;1.63;;;;;;;18.65;45.21;93851.84;5125377;28;20306;-79
2022/08/01 00:37:45;;;;;;;3.70;1.50;;;;;;;18.67;45.63;93859.59;5125487;28;20026;-79
2022/08/01 00:40:10;;;;;;;7.82;1.48;;;;;;;18.63;45.41;93856.06;5125083;28;20027;-79
2022/08/01 00:42:36;;;;;;;3.80;0.85;;;;;;;18.63;45.80;93854.13;5125222;28;20019;-79
2022/08/01 00:45:02;;;;;;;8.43;1.33;;;;;;;18.71;46.02;93854.25;5125200;28;20086;-79
2022/08/01 00:47:27;;;;;;;4.57;1.40;;;;;;;18.73;45.44;93852.75;5124431;28;20103;-79
2022/08/01 00:49:53;;;;;;;3.30;1.27;;;;;;;18.75;45.99;93849.69;5125128;28;20348;-79
2022/08/01 00:52:18;;;;;;;4.28;1.85;;;;;;;18.74;46.28;93853.50;5124894;28;20094;-79
2022/08/01 00:54:45;;;;;;;2.55;1.40;;;;;;;18.73;47.30;93851.97;5124830;28;20024;-79
2022/08/01 00:57:11;;;;;;;4.18;1.85;;;;;;;18.73;46.34;93852.75;5124786;28;20226;-79
2022/08/01 00:59:36;;;;;;;2.80;1.27;;;;;;;18.62;46.95;93852.59;5124749;27;20027;-79
2022/08/01 01:02:02;;;;;;;2.55;1.60;;;;;;;18.55;47.57;93849.78;5124852;28;20020;-80
2022/08/01 01:04:27;;;;;;;3.53;1.35;;;;;;;18.52;48.07;93852.41;5124691;28;20091;-79
2022/08/01 01:07:01;;;;;;;2.10;1.30;;;;;;;18.47;47.99;93844.66;5124519;28;20019;-79
2022/08/01 01:09:42;;;;;;;3.13;1.35;;;;;;;18.38;48.29;93842.22;5124637;28;20039;-79
2022/08/01 01:12:24;;;;;;;5.35;1.65;;;;;;;18.24;47.47;93835.44;5124582;28;20112;-79
2022/08/01 01:15:11;;;;;;;;;;;;;;;18.19;47.42;93829.56;5125032;27;20023;-79
2022/08/01 01:17:51;;;;;;;5.15;1.52;;;;;;;18.19;47.07;93833.03;5123005;28;19934;-79
2022/08/01 01:20:19;;;;;;;2.00;1.20;;;;;;;18.16;47.29;93827.63;5124198;28;20326;-79
2022/08/01 01:23:01;;;;;;;24.33;2.08;;;;;;;18.19;46.77;93827.66;5124200;28;20332;-79
2022/08/01 01:25:45;;;;;;;3.53;1.27;;;;;;;18.18;46.86;93833.44;5124201;28;20035;-79
2022/08/01 01:29:04;;;;;;;5.38;1.40;;;;;;;18.14;46.60;93827.19;5124137;28;20082;-79
2022/08/01 01:31:43;;;;;;;2.17;1.00;;;;;;;18.14;46.52;93819.88;5101782;28;20024;-79
2022/08/01 01:34:12;;;;;;;3.53;0.98;;;;;;;18.17;46.66;93827.22;5123989;28;20046;-79
2022/08/01 01:36:39;;;;;;;4.50;1.42;;;;;;;18.13;45.97;93821.00;5124128;28;20217;-79
2022/08/01 01:39:06;;;;;;;4.68;1.40;;;;;;;18.16;45.02;93809.50;5124187;28;20024;-79
2022/08/01 01:41:34;;;;;;;8.85;1.25;;;;;;;18.12;44.31;93805.97;5124042;28;20069;-79
2022/08/01 01:44:01;;;;;;;4.05;1.40;;;;;;;18.14;43.03;93803.69;5123896;28;20019;-78
2022/08/01 01:46:28;;;;;;;5.38;1.40;;;;;;;18.17;42.28;93794.09;5124039;27;20054;-79
2022/08/01 01:48:56;;;;;;;2.90;1.30;;;;;;;18.25;40.47;93784.97;5123712;28;20053;-80
2022/08/01 01:51:25;;;;;;;5.60;1.30;;;;;;;18.38;39.65;93801.75;5123827;28;20028;-79
2022/08/01 01:53:54;;;;;;;1.95;1.10;;;;;;;18.43;39.82;93799.50;5123706;28;20019;-80
2022/08/01 01:56:21;;;;;;;4.63;1.48;;;;;;;18.51;40.15;93796.91;5123776;28;20023;-79
2022/08/01 01:58:52;;;;;;;3.28;1.20;;;;;;;18.54;39.60;93798.84;5122815;28;20251;-80
2022/08/01 02:01:19;;;;;;;2.78;1.23;;;;;;;18.58;39.45;93803.19;5123698;28;20024;-79
2022/08/01 02:03:46;;;;;;;3.53;1.27;;;;;;;18.64;38.69;93800.91;5123610;28;20125;-79
2022/08/01 02:06:16;;;;;;;1.90;1.20;;;;;;;18.61;38.51;93793.56;5123742;28;20046;-80
2022/08/01 02:08:43;;;;;;;2.50;1.20;;;;;;;18.65;38.29;93800.56;5123488;28;20023;-79
2022/08/01 02:11:18;;;;;;;4.38;1.35;;;;;;;18.54;38.39;93799.66;5123590;28;20026;-80
2022/08/01 02:13:47;;;;;;;7.28;1.20;;;;;;;18.50;38.16;93800.72;5123483;28;20015;-79
2022/08/01 02:16:15;;;;;;;2.75;1.45;;;;;;;18.42;38.34;93789.84;5123385;28;20022;-79
2022/08/01 02:18:41;;;;;;;5.75;1.35;;;;;;;18.36;37.81;93785.09;5123388;28;20042;-79
2022/08/01 02:21:11;;;;;;;3.97;1.08;;;;;;;18.41;37.53;93790.22;5123437;28;20020;-79
2022/08/01 02:23:40;;;;;;;3.03;1.08;;;;;;;18.38;37.65;93785.56;5123431;28;20076;-79
2022/08/01 02:26:13;;;;;;;6.60;1.35;;;;;;;18.38;37.28;93788.25;5123547;28;20221;-80
2022/08/01 02:28:52;;;;;;;4.68;1.42;;;;;;;18.42;37.86;93783.69;5123338;28;20115;-79
2022/08/01 02:31:21;;;;;;;3.03;1.05;;;;;;;18.42;37.82;93775.59;5123196;28;20027;-79
2022/08/01 02:34:04;;;;;;;3.35;1.25;;;;;;;18.44;38.14;93784.09;5123200;28;20024;-79
2022/08/01 02:36:35;;;;;;;3.22;1.30;;;;;;;18.52;37.51;93787.66;5123235;28;20028;-79
2022/08/01 02:39:08;;;;;;;2.08;1.08;;;;;;;18.53;38.03;93786.53;5123094;28;20015;-79
2022/08/01 02:41:40;;;;;;;3.28;1.27;;;;;;;18.56;38.39;93783.88;5123302;28;20019;-79
2022/08/01 02:44:09;;;;;;;1.85;1.30;;;;;;;18.53;38.84;93790.00;5123304;28;20276;-80
2022/08/01 02:46:39;;;;;;;3.47;1.30;;;;;;;18.55;38.73;93784.22;5123150;28;20032;-79
2022/08/01 02:49:08;;;;;;;3.08;1.30;;;;;;;18.51;38.95;93781.47;5123191;28;20083;-79
2022/08/01 02:51:36;;;;;;;6.82;1.67;;;;;;;18.61;39.01;93778.16;5123244;28;20039;-79
2022/08/01 02:54:04;;;;;;;5.57;1.10;;;;;;;18.59;39.09;93768.88;5123023;28;20023;-79
2022/08/01 02:56:34;;;;;;;2.28;1.20;;;;;;;18.60;39.47;93784.69;5122923;28;20207;-79
2022/08/01 02:59:14;;;;;;;8.27;1.40;;;;;;;18.67;39.52;93777.84;5122947;28;20030;-79
2022/08/01 03:01:41;;;;;;;3.55;1.20;;;;;;;18.61;39.45;93780.84;5123039;28;20085;-79
2022/08/01 03:04:07;;;;;;;3.13;1.30;;;;;;;18.60;39.30;93776.59;5123039;28;20027;-80
2022/08/01 03:06:34;;;;;;;8.77;1.25;;;;;;;18.67;39.79;93772.44;5122972;28;20038;-80
2022/08/01 03:09:02;;;;;;;2.20;1.30;;;;;;;18.65;39.84;93770.88;5122760;28;20069;-78
2022/08/01 03:11:30;;;;;;;8.60;1.60;;;;;;;18.61;39.87;93770.06;5126926;28;20254;-78
2022/08/01 03:13:59;;;;;;;4.43;1.42;;;;;;;18.63;39.99;93770.47;5126731;28;20075;-78
2022/08/01 03:16:26;;;;;;;3.63;1.48;;;;;;;18.68;39.72;93780.16;5126829;27;20085;-78
2022/08/01 03:18:55;;;;;;;2.65;1.50;;;;;;;18.72;40.22;93775.56;5126760;28;20019;-78
2022/08/01 03:21:23;;;;;;;5.07;1.40;;;;;;;18.72;39.91;93783.69;5126760;28;20221;-78
2022/08/01 03:23:51;;;;;;;2.08;1.35;;;;;;;18.76;39.69;93783.72;5126567;28;20024;-78
2022/08/01 03:26:18;;;;;;;4.75;1.50;;;;;;;18.79;39.64;93780.34;5126661;28;20031;-79
2022/08/01 03:28:46;;;;;;;2.20;1.30;;;;;;;18.81;40.25;93784.22;5126529;27;20077;-78
2022/08/01 03:31:13;;;;;;;4.10;1.40;;;;;;;18.81;39.93;93783.44;5126646;28;20183;-78
2022/08/01 03:33:39;;;;;;;4.15;1.35;;;;;;;18.77;39.97;93788.00;5126626;28;20094;-78
2022/08/01 03:36:09;;;;;;;2.63;1.27;;;;;;;18.82;40.18;93790.38;5126506;28;20260;-78
2022/08/01 03:38:39;;;;;;;2.42;1.15;;;;;;;18.82;40.18;93788.47;5126604;28;20022;-79
2022/08/01 03:41:20;;;;;;;4.13;1.45;;;;;;;18.79;40.17;93796.53;5126348;28;20019;-79
2022/08/01 03:43:56;;;;;;;3.17;1.30;;;;;;;18.79;40.06;93788.44;5126318;28;20201;-78
2022/08/01 03:46:29;;;;;;;8.13;1.70;;;;;;;18.84;40.14;93794.28;5126203;28;20023;-79
2022/08/01 03:49:00;;;;;;;3.17;1.90;;;;;;;18.84;40.23;93780.78;5126118;28;20030;-79
2022/08/01 03:51:27;;;;;;;4.15;1.80;;;;;;;18.86;40.60;93787.75;5126201;28;20252;-78
2022/08/01 03:53:55;;;;;;;3.45;1.88;;;;;;;18.88;40.39;93790.84;5126242;28;20031;-78
2022/08/01 03:56:22;;;;;;;5.43;2.00;;;;;;;18.91;40.65;93788.22;5126275;28;20020;-78
2022/08/01 03:58:50;;;;;;;3.40;1.98;;;;;;;18.89;39.95;93785.09;5125924;28;20012;-78
2022/08/01 04:01:16;;;;;;;3.35;1.60;;;;;;;18.96;40.08;93787.88;5125931;28;20043;-78
2022/08/01 04:03:43;;;;;;;5.22;1.95;;;;;;;18.99;39.95;93784.44;5125982;28;20020;-78
2022/08/01 04:06:10;;;;;;;6.53;1.85;;;;;;;19.02;40.54;93783.69;5125947;28;20221;-79
2022/08/01 04:08:40;;;;;;;4.03;1.50;;;;;;;19.04;40.05;93792.22;5125832;28;20023;-79
2022/08/01 04:11:05;;;;;;;3.75;1.77;;;;;;;19.04;39.84;93786.03;5125537;28;20090;-78
2022/08/01 04:13:32;;;;;;;9.95;1.80;;;;;;;19.10;39.76;93786.50;5125836;28;20403;-79
2022/08/01 04:15:58;;;;;;;4.60;1.75;;;;;;;19.08;40.02;93792.25;5125652;27;20043;-78
2022/08/01 04:18:23;;;;;;;3.83;1.48;;;;;;;19.07;39.75;93779.09;5125649;28;20203;-77
2022/08/01 04:20:49;;;;;;;3.30;1.50;;;;;;;19.12;39.70;93790.38;5124852;28;20047;-76
2022/08/01 04:23:21;;;;;;;4.80;1.48;;;;;;;19.22;41.07;93795.13;5125247;28;20050;-77
2022/08/01 04:25:48;;;;;;;;;;;;;;;19.22;40.08;93797.81;5125968;28;20016;-77
2022/08/01 04:28:16;;;;;;;5.20;1.77;;;;;;;19.24;40.17;93810.97;5125353;28;19915;-78
2022/08/01 04:30:44;;;;;;;5.30;2.00;;;;;;;19.29;40.12;93804.44;5125311;28;20028;-78
2022/08/01 04:33:13;;;;;;;15.63;2.00;;;;;;;19.29;39.87;93799.03;5125545;28;20228;-78
2022/08/01 04:35:41;;;;;;;3.03;1.48;;;;;;;19.35;40.39;93792.94;5125465;28;20011;-78
2022/08/01 04:38:08;;;;;;;4.68;1.85;;;;;;;19.39;40.60;93785.63;5125032;28;20040;-78
2022/08/01 04:40:35;;;;;;;4.57;2.25;;;;;;;19.40;39.96;93787.22;5125054;28;20016;-78
2022/08/01 04:43:02;;;;;;;4.82;1.52;;;;;;;19.43;39.97;93797.25;5123898;28;20027;-78
2022/08/01 04:45:28;;;;;;;5.45;1.48;;;;;;;19.49;39.83;93805.06;5125244;28;20023;-79
2022/08/01 04:47:54;;;;;;;3.78;1.65;;;;;;;19.53;40.05;93800.47;5124859;28;20024;-78
2022/08/01 04:50:21;;;;;;;3.60;2.20;;;;;;;19.60;39.88;93789.69;5124961;28;20087;-78
2022/08/01 04:52:47;;;;;;;4.30;1.52;;;;;;;19.69;42.29;93792.88;5124737;28;20051;-78
2022/08/01 04:55:13;;;;;;;4.03;1.83;;;;;;;19.59;41.47;93798.97;5124718;28;20031;-78
2022/08/01 04:57:42;;;;;;;2.60;1.63;;;;;;;19.62;43.51;93793.59;5125112;28;20209;-79
2022/08/01 05:00:08;;;;;;;4.80;2.53;;;;;;;19.56;46.40;93788.88;5125057;28;20083;-78
2022/08/01 05:02:34;;;;;;;4.68;2.17;;;;;;;19.54;44.08;93799.28;5124494;28;20026;-78
2022/08/01 05:05:00;;;;;;;3.28;1.42;;;;;;;19.56;40.98;93799.69;5124941;28;20027;-78
2022/08/01 05:07:25;;;;;;;6.25;2.40;;;;;;;19.62;44.81;93787.41;5124624;28;20015;-78
2022/08/01 05:09:50;;;;;;;7.53;3.03;;;;;;;19.58;47.75;93792.00;5124571;28;20049;-78
2022/08/01 05:12:16;;;;;;;6.20;1.92;;;;;;;19.46;42.74;93779.53;5124572;28;20396;-79
2022/08/01 05:14:42;;;;;;;2.47;1.52;;;;;;;19.54;42.86;93785.78;5124696;28;20019;-78
2022/08/01 05:17:08;;;;;;;2.83;1.30;;;;;;;19.65;41.92;93800.97;5124281;28;20340;-78
2022/08/01 05:19:35;;;;;;;3.95;1.60;;;;;;;19.78;41.41;93793.41;5124367;28;20306;-78
2022/08/01 05:22:01;;;;;;;5.60;2.15;;;;;;;19.81;41.50;93789.94;5124470;28;20019;-79
2022/08/01 05:24:28;;;;;;;4.47;1.50;;;;;;;19.88;42.10;93796.56;5124269;28;20023;-78
2022/08/01 05:26:55;;;;;;;8.50;1.92;;;;;;;19.93;40.93;93788.13;5124096;28;20298;-78
2022/08/01 05:29:21;;;;;;;3.03;1.30;;;;;;;19.94;40.84;93789.66;5123935;28;20054;-78
2022/08/01 05:31:46;;;;;;;7.15;1.73;;;;;;;19.97;40.18;93786.22;5124283;28;20019;-78
2022/08/01 05:34:12;;;;;;;2.70;1.88;;;;;;;20.03;40.97;93795.53;5124149;28;20259;-78
2022/08/01 05:36:37;;;;;;;3.05;1.65;;;;;;;20.06;40.55;93783.19;5124098;28;20094;-78
2022/08/01 05:39:04;;;;;;;3.90;1.65;;;;;;;20.02;40.28;93792.03;5124010;28;20749;-78
2022/08/01 05:41:29;;;;;;;7.63;1.92;;;;;;;19.87;39.91;93786.91;5124113;27;20030;-77
2022/08/01 05:43:55;;;;;;;2.95;1.70;;;;;;;19.83;40.18;93790.34;5124148;28;20286;-77
2022/08/01 05:46:20;;;;;;;4.57;1.63;;;;;;;19.90;40.35;93786.91;5123944;28;20023;-78
2022/08/01 05:48:46;;;;;;;5.78;1.58;;;;;;;19.92;41.02;93781.13;5123780;28;20031;-78
2022/08/01 05:51:11;;;;;;;6.30;1.48;;;;;;;19.98;40.83;93783.13;5123925;28;20035;-78
2022/08/01 05:53:37;;;;;;;9.40;2.63;;;;;;;20.02;40.63;93783.16;5123678;28;20033;-78
2022/08/01 05:56:02;;;;;;;2.88;1.67;;;;;;;20.10;41.34;93797.50;5123792;27;20027;-78
2022/08/01 05:58:28;;;;;;;6.35;1.98;;;;;;;20.20;41.32;93794.88;5123691;28;20020;-78
2022/08/01 06:00:53;;;;;;;5.88;1.60;;;;;;;20.16;41.50;93787.91;5123555;28;20023;-78
2022/08/01 06:03:19;;;;;;;5.70;1.75;;;;;;;20.22;40.99;93789.88;5123483;28;20051;-78
2022/08/01 06:05:44;;;;;;;4.03;1.58;;;;;;;20.35;41.63;93794.97;5123711;28;20313;-78
2022/08/01 06:08:10;;;;;;;7.75;1.70;;;;;;;20.33;40.41;93792.63;5123648;28;20024;-78
2022/08/01 06:10:35;;;;;;;2.55;1.60;;;;;;;20.32;40.77;93796.50;5123662;28;20031;-78
2022/08/01 06:13:02;;;;;;;3.17;1.90;;;;;;;20.31;41.11;93802.28;5123684;28;20028;-77
2022/08/01 06:15:29;;;;;;;4.18;1.95;;;;;;;20.19;40.31;93797.97;5123463;28;20337;-79
2022/08/01 06:17:55;;;;;;;4.03;1.60;;;;;;;20.23;41.49;93807.69;5123525;28;20059;-79
2022/08/01 06:20:20;;;;;;;4.28;1.92;;;;;;;20.23;41.40;93806.88;5123205;28;20023;-79
2022/08/01 06:22:46;;;;;;;6.43;1.58;;;;;;;20.28;41.11;93800.34;5123635;28;20024;-78
2022/08/01 06:25:11;;;;;;;3.88;1.75;;;;;;;20.34;41.09;93807.75;5123563;28;20032;-79
2022/08/01 06:27:37;;;;;;;3.15;1.75;;;;;;;20.27;41.53;93787.97;5123119;28;20236;-79
2022/08/01 06:30:07;;;;;;;3.60;1.95;;;;;;;20.20;40.18;93819.22;5122991;28;20081;-77
2022/08/01 06:32:33;;;;;;;12.32;2.47;;;;;;;20.26;42.43;93798.03;5123158;28;20038;-77
2022/08/01 06:34:58;;;;;;;3.35;1.70;;;;;;;20.27;42.39;93799.56;5123406;28;20095;-77
2022/08/01 06:37:29;;;;;;;6.80;1.70;;;;;;;20.24;41.37;93790.28;5123289;28;20027;-77
2022/08/01 06:39:54;;;;;;;5.07;1.63;;;;;;;20.32;42.02;93799.22;5123090;28;20096;-77
2022/08/01 06:42:19;;;;;;;3.13;1.65;;;;;;;20.38;41.70;93802.38;5123180;28;20306;-77
2022/08/01 06:44:45;;;;;;;3.78;1.67;;;;;;;20.45;42.47;93788.84;5124811;28;20032;-77
2022/08/01 06:47:11;;;;;;;3.67;1.80;;;;;;;20.45;41.16;93788.84;5127500;28;20221;-77
2022/08/01 06:49:36;;;;;;;8.40;1.80;;;;;;;20.44;41.30;93784.63;5127232;28;20058;-77
2022/08/01 06:52:03;;;;;;;3.95;1.75;;;;;;;20.24;41.35;93776.75;5127140;28;20024;-76
2022/08/01 06:54:29;;;;;;;3.72;2.05;;;;;;;20.28;41.57;93800.34;5127481;28;20058;-76
2022/08/01 06:56:54;;;;;;;6.60;1.70;;;;;;;20.32;42.31;93793.03;5127336;28;20322;-76
2022/08/01 06:59:19;;;;;;;3.78;1.70;;;;;;;20.38;41.95;93772.59;5127120;28;20015;-77
2022/08/01 07:01:45;;;;;;;10.27;1.92;;;;;;;20.33;42.30;93775.63;5127158;28;20313;-77
2022/08/01 07:04:10;;;;;;;5.47;1.88;;;;;;;20.32;42.13;93777.56;5126619;28;20092;-77
2022/08/01 07:06:36;;;;;;;3.95;1.85;;;;;;;20.34;41.95;93766.38;5126832;27;20035;-77
2022/08/01 07:09:03;;;;;;;4.22;1.80;;;;;;;20.46;42.90;93779.59;5126936;28;20031;-77
2022/08/01 07:11:28;;;;;;;9.32;2.65;;;;;;;20.52;42.90;93782.72;5126946;27;20030;-76
2022/08/01 07:13:54;;;;;;;2.83;1.50;;;;;;;20.61;42.68;93785.91;5126969;28;20225;-77
2022/08/01 07:16:19;;;;;;;6.65;2.00;;;;;;;20.62;42.97;93782.81;5126906;28;20022;-77
2022/08/01 07:18:45;;;;;;;5.28;1.50;;;;;;;20.74;43.39;93789.06;5126990;28;20023;-77
2022/08/01 07:21:11;;;;;;;6.90;2.00;;;;;;;20.62;42.67;93793.66;5126575;27;20043;-77
2022/08/01 07:23:36;;;;;;;15.25;2.65;;;;;;;20.78;42.60;93779.00;5126599;28;20404;-77
2022/08/01 07:26:04;;;;;;;7.53;2.15;;;;;;;20.80;42.81;93790.25;5126262;28;20087;-77
2022/08/01 07:28:29;;;;;;;4.35;2.45;;;;;;;20.83;42.81;93784.84;5126374;27;20024;-78
2022/08/01 07:30:55;;;;;;;5.18;2.05;;;;;;;20.99;42.76;93795.38;5126595;28;20252;-76
2022/08/01 07:33:22;;;;;;;4.43;2.15;;;;;;;21.02;42.65;93789.22;5126515;27;20024;-76
2022/08/01 07:35:47;;;;;;;5.18;2.17;;;;;;;21.02;42.32;93789.22;5126230;28;20193;-76
2022/08/01 07:38:14;;;;;;;5.00;2.10;;;;;;;20.97;42.62;93786.84;5126716;28;20027;-77
2022/08/01 07:40:40;;;;;;;7.93;1.92;;;;;;;20.99;42.05;93791.91;5126416;28;20023;-76
2022/08/01 07:43:06;;;;;;;2.83;1.60;;;;;;;21.09;42.94;93793.09;5126284;28;20027;-76
2022/08/01 07:45:31;;;;;;;3.55;2.05;;;;;;;21.17;41.28;93787.31;5126420;28;20072;-77
2022/08/01 07:48:02;;;;;;;4.20;1.95;;;;;;;21.32;40.43;93801.69;5126170;28;20024;-77
2022/08/01 07:50:27;;;;;;;6.22;1.90;;;;;;;21.19;39.69;93795.84;5126216;28;20026;-77
2022/08/01 07:52:53;;;;;;;7.03;2.08;;;;;;;21.32;40.65;93812.53;5126155;28;20020;-77
2022/08/01 07:55:18;;;;;;;2.85;1.80;;;;;;;21.43;40.14;93799.81;5125597;28;20090;-77
2022/08/01 07:57:44;;;;;;;3.22;1.90;;;;;;;21.58;39.55;93802.56;5125081;28;20020;-77
2022/08/01 08:00:10;;;;;;;5.57;1.80;;;;;;;21.70;39.55;93794.06;5126173;28;20030;-77
2022/08/01 08:02:36;;;;;;;5.75;1.85;;;;;;;21.72;39.89;93785.56;5126122;28;20027;-76
2022/08/01 08:05:01;;;;;;;4.50;1.73;;;;;;;21.88;38.80;93798.72;5125970;28;20035;-77
2022/08/01 08:07:27;;;;;;;3.13;1.67;;;;;;;21.89;38.37;93792.16;5125823;28;20275;-76
2022/08/01 08:09:52;;;;;;;4.10;1.85;;;;;;;21.89;38.92;93803.78;5125861;28;20054;-76
2022/08/01 08:12:18;;;;;;;6.25;1.63;;;;;;;21.91;38.64;93816.97;5126080;28;20047;-76
2022/08/01 08:14:43;;;;;;;6.68;2.20;;;;;;;21.77;39.38;93796.00;5125933;28;20098;-76
2022/08/01 08:17:09;;;;;;;3.15;1.83;;;;;;;;;;5125462;28;20038;-76
2022/08/01 08:19:36;;;;;;;4.55;2.50;;;;;;;21.96;39.47;93797.56;5125457;28;20105;-76
2022/08/01 08:22:02;;;;;;;3.80;2.20;;;;;;;21.90;38.92;93793.69;5125721;28;20043;-76
2022/08/01 08:24:27;;;;;;;10.30;1.70;;;;;;;21.62;39.52;93781.66;5125565;28;20080;-76
2022/08/01 08:26:58;;;;;;;7.22;2.10;;;;;;;21.49;40.26;93802.16;5125349;28;20027;-76
2022/08/01 08:29:26;;;;;;;3.88;1.67;;;;;;;21.60;40.43;93795.59;5125194;28;20024;-76
2022/08/01 08:31:54;;;;;;;9.13;2.10;;;;;;;21.65;39.20;93794.44;5125545;28;20019;-75
2022/08/01 08:34:20;;;;;;;5.53;1.60;;;;;;;21.65;39.07;93824.25;5125318;28;20094;-75
2022/08/01 08:36:45;;;;;;;2.47;1.58;;;;;;;21.67;40.57;93783.22;5125262;28;20015;-75
2022/08/01 08:39:11;;;;;;;7.85;2.33;;;;;;;21.79;40.08;93797.16;5125259;28;20020;-75
2022/08/01 08:41:37;;;;;;;2.90;1.60;;;;;;;21.87;37.97;93791.75;5124158;28;20032;-75
2022/08/01 08:44:07;;;;;;;5.35;1.85;;;;;;;21.96;39.61;93790.22;5125123;28;20064;-75
2022/08/01 08:46:33;;;;;;;5.05;1.80;;;;;;;21.96;38.25;93789.44;5124948;28;20218;-75
2022/08/01 08:49:01;;;;;;;5.60;2.42;;;;;;;22.04;39.31;93794.50;5124949;28;20294;-75
2022/08/01 08:51:29;;;;;;;3.38;1.70;;;;;;;22.03;37.92;93787.50;5124978;28;20027;-75
2022/08/01 08:53:56;;;;;;;2.90;1.70;;;;;;;21.87;38.44;93770.06;5124952;28;20028;-76
2022/08/01 08:56:23;;;;;;;4.35;1.77;;;;;;;22.05;40.38;93781.69;5125009;28;20250;-76
2022/08/01 08:58:50;;;;;;;4.78;1.42;;;;;;;22.13;38.82;93769.66;5125042;28;20410;-76
2022/08/01 09:01:17;;;;;;;4.65;1.52;;;;;;;22.21;37.47;93784.03;5124923;28;20020;-76
2022/08/01 09:03:43;;;;;;;3.40;1.92;;;;;;;22.30;36.54;93770.84;5124671;28;20019;-76
2022/08/01 09:06:10;;;;;;;4.10;1.88;;;;;;;22.29;37.13;93768.50;5124775;28;20225;-76
2022/08/01 09:08:35;;;;;;;3.80;1.40;;;;;;;22.27;35.95;93787.13;5124202;28;20027;-76
2022/08/01 09:11:01;;;;;;;4.03;1.90;;;;;;;22.19;37.33;93776.25;5124661;28;20325;-76
2022/08/01 09:13:26;;;;;;;10.60;1.70;;;;;;;22.16;37.45;93771.59;5124615;28;20348;-76
2022/08/01 09:15:54;;;;;;;3.42;1.98;;;;;;;22.34;36.75;93787.13;5124639;28;20023;-76
2022/08/01 09:18:40;;;;;;;3.97;1.48;;;;;;;22.33;36.74;93782.88;5124548;28;20035;-79
2022/08/01 09:21:06;;;;;;;3.38;1.52;;;;;;;22.33;37.56;93769.31;5124586;28;20054;-80
2022/08/01 09:23:39;;;;;;;6.65;1.88;;;;;;;22.40;37.31;93783.63;5124385;28;20023;-78
2022/08/01 09:26:06;;;;;;;4.68;1.73;;;;;;;22.51;37.88;93759.19;5124448;28;20023;-79
2022/08/01 09:28:32;;;;;;;3.20;2.00;;;;;;;22.67;38.13;93776.97;5124332;28;20025;-79
2022/08/01 09:30:58;;;;;;;4.97;1.85;;;;;;;22.67;36.17;93771.56;5124304;28;20027;-79
2022/08/01 09:33:23;;;;;;;5.05;1.55;;;;;;;22.66;36.19;93778.94;5123003;28;20038;-79
2022/08/01 09:35:57;;;;;;;4.43;1.63;;;;;;;22.67;37.54;93766.88;5124595;28;20082;-78
2022/08/01 09:38:26;;;;;;;3.65;2.00;;;;;;;22.80;36.69;93756.38;5124362;28;20019;-78
2022/08/01 09:40:51;;;;;;;3.13;1.67;;;;;;;22.81;36.77;93782.38;5124104;28;20034;-78
2022/08/01 09:43:18;;;;;;;8.90;1.77;;;;;;;22.76;38.05;93764.53;5123931;28;20028;-78
2022/08/01 09:45:43;;;;;;;4.32;1.83;;;;;;;22.80;36.82;93765.31;5124039;28;20024;-78
2022/08/01 09:48:10;;;;;;;3.67;2.42;;;;;;;22.93;37.77;93771.09;5123945;28;20023;-78
2022/08/01 09:50:42;;;;;;;3.47;1.92;;;;;;;23.01;38.38;93763.69;5124005;28;20020;-78
2022/08/01 09:53:09;;;;;;;5.28;2.05;;;;;;;22.99;38.30;93774.94;5123655;28;20024;-78
2022/08/01 09:55:35;;;;;;;3.65;1.67;;;;;;;22.97;38.46;93762.91;5123887;28;20062;-78
2022/08/01 09:58:01;;;;;;;4.85;1.80;;;;;;;23.09;39.02;93750.88;5123705;28;20019;-78
2022/08/01 10:00:27;;;;;;;2.88;1.95;;;;;;;23.13;38.30;93759.78;5123630;28;20036;-78
2022/08/01 10:02:53;;;;;;;4.53;2.00;;;;;;;23.08;38.66;93762.91;5123687;28;20226;-78
2022/08/01 10:05:30;;;;;;;15.13;2.10;;;;;;;23.04;38.95;93749.34;5123833;28;20060;-78
2022/08/01 10:08:04;;;;;;;5.65;1.85;;;;;;;23.08;38.83;93752.03;5123472;28;20293;-77
2022/08/01 10:10:31;;;;;;;3.17;1.83;;;;;;;23.17;36.31;93758.59;5123688;28;20061;-78
2022/08/01 10:12:59;;;;;;;4.30;2.20;;;;;;;23.33;37.43;93747.25;5123548;28;20016;-78
2022/08/01 10:15:29;;;;;;;6.00;2.45;;;;;;;23.49;36.63;93746.78;5123413;28;20026;-78
2022/08/01 10:17:57;;;;;;;3.13;1.88;;;;;;;23.49;38.20;93754.13;5123221;28;20039;-78
2022/08/01 10:20:29;;;;;;;3.10;1.83;;;;;;;23.49;36.52;93757.66;5122817;28;20051;-78
2022/08/01 10:22:58;;;;;;;9.50;2.42;;;;;;;23.49;36.10;93745.97;5123655;28;20007;-77
2022/08/01 10:25:33;;;;;;;3.30;1.55;;;;;;;23.47;36.99;93756.47;5123230;28;20023;-77
2022/08/01 10:28:01;;;;;;;6.53;1.80;;;;;;;23.53;37.46;93742.09;5123431;28;20035;-77
2022/08/01 10:30:27;;;;;;;6.03;1.60;;;;;;;23.53;35.23;93744.00;5123427;28;20019;-77
2022/08/01 10:32:53;;;;;;;3.58;1.70;;;;;;;23.70;35.09;93737.69;5123461;28;20339;-77
2022/08/01 10:35:18;;;;;;;8.77;2.10;;;;;;;23.79;35.31;93727.16;5123285;28;20213;-77
2022/08/01 10:37:46;;;;;;;5.30;1.90;;;;;;;23.90;35.79;93729.81;5123092;28;20061;-77
2022/08/01 10:40:15;;;;;;;3.53;1.55;;;;;;;23.78;34.85;93750.09;5123374;28;20020;-77
2022/08/01 10:42:45;;;;;;;5.60;1.83;;;;;;;23.58;35.45;93741.66;5123290;28;20220;-77
2022/08/01 10:45:15;;;;;;;5.07;1.55;;;;;;;23.61;36.26;93723.75;5123203;28;20027;-77
2022/08/01 10:47:49;;;;;;;6.97;1.92;;;;;;;23.50;36.06;93748.31;5123116;28;20019;-76
2022/08/01 10:50:24;;;;;;;2.33;1.48;;;;;;;23.50;36.23;93723.06;5123178;28;20042;-76
2022/08/01 10:53:13;;;;;;;4.57;2.08;;;;;;;23.46;36.24;93738.63;5121992;28;20028;-77
2022/08/01 10:56:09;;;;;;;2.78;1.48;;;;;;;23.46;35.93;93744.06;5122992;28;20026;-76
2022/08/01 10:58:41;;;;;;;2.90;1.65;;;;;;;23.47;35.19;93734.72;5117916;28;20024;-76
2022/08/01 11:01:31;;;;;;;10.93;2.00;;;;;;;23.65;36.97;93724.53;5123225;28;20389;-77
2022/08/01 11:04:14;;;;;;;2.70;1.70;;;;;;;23.88;36.16;93728.66;5123140;28;20274;-76
2022/08/01 11:06:44;;;;;;;4.13;1.50;;;;;;;23.98;36.24;93725.09;5123012;28;20028;-77
2022/08/01 11:09:12;;;;;;;3.92;1.85;;;;;;;23.97;36.47;93718.84;5123053;28;20238;-75
2022/08/01 11:11:58;;;;;;;6.90;2.58;;;;;;;24.13;34.57;93729.22;5123154;28;20107;-76
2022/08/01 11:14:23;;;;;;;3.45;1.52;;;;;;;23.98;34.99;93720.41;5122927;28;20022;-75
2022/08/01 11:16:49;;;;;;;6.13;1.48;;;;;;;23.92;35.15;93729.41;5122779;28;20325;-76
2022/08/01 11:19:14;;;;;;;3.40;2.35;;;;;;;23.82;35.67;93717.44;5123024;28;20024;-76
2022/08/01 11:21:55;;;;;;;4.80;1.40;;;;;;;23.80;34.90;93720.53;5122873;28;20035;-76
2022/08/01 11:24:48;;;;;;;4.25;1.60;;;;;;;23.60;37.03;93722.22;5122917;28;20224;-76
2022/08/01 11:27:22;;;;;;;3.35;1.42;;;;;;;23.59;36.86;93715.22;5122838;28;20320;-75
2022/08/01 11:30:23;;;;;;;2.95;1.65;;;;;;;23.90;35.89;93729.03;5122899;28;20271;-75
2022/08/01 11:32:55;;;;;;;6.68;1.63;;;;;;;23.82;36.02;93712.75;5104443;28;20055;-75
2022/08/01 11:35:24;;;;;;;2.78;1.50;;;;;;;23.86;35.98;93704.56;5123304;28;20051;-75
2022/08/01 11:37:55;;;;;;;4.50;1.80;;;;;;;23.94;37.27;93716.16;5126692;28;20019;-76
2022/08/01 11:40:28;;;;;;;3.25;1.77;;;;;;;24.14;37.30;93703.53;5126550;28;20026;-76